createdAt,value
2023-05-05T00:02:50.612Z,62.03
2023-05-05T00:07:54.233Z,61.87
2023-05-05T00:12:57.221Z,61.88
2023-05-05T00:18:00.257Z,61.65
2023-05-05T00:23:04.166Z,61.34
2023-05-05T00:28:07.116Z,61.33
2023-05-05T00:33:10.193Z,61.29
2023-05-05T00:38:13.171Z,61.03
2023-05-05T00:43:16.203Z,60.78
2023-05-05T00:48:19.624Z,60.81
2023-05-05T00:53:23.276Z,60.46
2023-05-05T00:58:26.095Z,60.40
2023-05-05T01:03:29.131Z,61.04
2023-05-05T01:09:20.147Z,61.04
2023-05-05T01:14:53.068Z,61.55
2023-05-05T01:20:21.671Z,61.25
2023-05-05T01:26:12.450Z,61.24
2023-05-05T01:31:32.047Z,61.06
2023-05-05T01:36:42.372Z,61.14
2023-05-05T01:41:54.339Z,61.60
2023-05-05T01:46:59.656Z,61.56
2023-05-05T01:52:05.107Z,66.49
2023-05-05T01:57:10.185Z,63.04
2023-05-05T02:02:15.755Z,53.27
2023-05-05T02:07:21.177Z,52.52
2023-05-05T02:12:24.170Z,53.49
2023-05-05T02:17:27.829Z,54.51
2023-05-05T02:22:31.724Z,55.44
2023-05-05T02:27:36.218Z,56.45
2023-05-05T02:32:53.961Z,57.54
2023-05-05T02:38:02.877Z,58.72
2023-05-05T02:43:10.031Z,59.43
2023-05-05T02:48:13.299Z,59.59
2023-05-05T02:53:16.648Z,60.58
2023-05-05T02:58:33.355Z,61.35
2023-05-05T03:03:47.568Z,61.68
2023-05-05T03:08:56.905Z,61.97
2023-05-05T03:14:13.371Z,68.15
2023-05-05T03:19:20.406Z,62.43
2023-05-05T03:24:23.471Z,53.32
2023-05-05T03:29:26.835Z,53.65
2023-05-05T03:34:29.804Z,54.95
2023-05-05T03:39:32.768Z,56.51
2023-05-05T03:44:35.704Z,57.85
2023-05-05T03:49:38.674Z,58.66
2023-05-05T03:54:42.586Z,58.85
2023-05-05T03:59:45.731Z,59.34
2023-05-05T04:04:48.735Z,59.73
2023-05-05T04:09:51.868Z,60.39
2023-05-05T04:14:54.892Z,60.61
2023-05-05T04:19:57.861Z,61.08
2023-05-05T04:25:01.344Z,60.75
2023-05-05T04:30:05.150Z,60.31
2023-05-05T04:35:08.600Z,60.29
2023-05-05T04:40:12.095Z,60.58
2023-05-05T04:45:15.322Z,60.96
2023-05-05T04:50:18.332Z,61.21
2023-05-05T04:55:21.479Z,61.30
2023-05-05T05:00:24.587Z,61.27
2023-05-05T05:05:27.561Z,61.45
2023-05-05T05:10:30.559Z,61.30
2023-05-05T05:15:33.586Z,61.76
2023-05-05T05:20:36.564Z,61.55
2023-05-05T05:25:39.553Z,61.47
2023-05-05T05:30:42.519Z,61.47
2023-05-05T05:35:45.746Z,61.88
2023-05-05T05:40:48.673Z,61.84
2023-05-05T05:45:52.104Z,67.33
2023-05-05T05:50:56.466Z,64.74
2023-05-05T05:55:59.464Z,52.26
2023-05-05T06:01:04.129Z,50.80
2023-05-05T06:06:07.698Z,52.38
2023-05-05T06:11:10.843Z,53.60
2023-05-05T06:16:13.816Z,53.85
2023-05-05T06:21:16.851Z,54.34
2023-05-05T06:26:19.875Z,54.26
2023-05-05T06:31:22.961Z,54.60
2023-05-05T06:36:26.372Z,54.65
2023-05-05T06:41:29.302Z,55.29
2023-05-05T06:46:32.288Z,55.46
2023-05-05T06:51:35.626Z,56.00
2023-05-05T06:56:38.587Z,55.76
2023-05-05T07:01:41.646Z,55.55
2023-05-05T07:06:44.631Z,55.48
2023-05-05T07:11:47.599Z,54.92
2023-05-05T07:16:50.598Z,54.16
2023-05-05T07:21:53.601Z,55.46
2023-05-05T07:26:58.145Z,55.41
2023-05-05T07:32:01.122Z,54.71
2023-05-05T07:37:05.327Z,54.51
2023-05-05T07:42:08.479Z,52.93
2023-05-05T07:47:11.506Z,51.52
2023-05-05T07:52:14.491Z,51.67
2023-05-05T07:57:17.531Z,52.06
2023-05-05T08:02:23.046Z,51.54
2023-05-05T08:07:26.098Z,48.79
2023-05-05T08:12:32.165Z,46.28
2023-05-05T08:17:49.786Z,47.91
2023-05-05T08:22:52.726Z,46.75
2023-05-05T08:27:55.782Z,44.29
2023-05-05T08:32:59.436Z,44.20
2023-05-05T08:38:02.472Z,45.58
2023-05-05T08:43:06.012Z,44.34
2023-05-05T08:48:10.282Z,41.92
2023-05-05T08:53:17.839Z,41.78
2023-05-05T08:58:26.981Z,41.04
2023-05-05T09:03:32.326Z,43.11
2023-05-05T09:08:37.436Z,43.24
2023-05-05T09:19:05.097Z,43.97
2023-05-05T09:24:13.446Z,43.99
2023-05-05T09:29:21.387Z,42.77
2023-05-05T09:34:24.454Z,42.91
2023-05-05T09:39:27.533Z,42.32
2023-05-05T09:44:36.420Z,41.24
2023-05-05T09:49:39.513Z,41.15
2023-05-05T09:54:43.795Z,41.61
2023-05-05T09:59:58.274Z,43.19
2023-05-05T10:05:18.322Z,43.71
2023-05-05T10:10:21.566Z,43.76
2023-05-05T10:15:24.675Z,42.68
2023-05-05T10:20:27.990Z,43.16
2023-05-05T10:25:38.493Z,42.39
2023-05-05T10:30:46.419Z,43.06
2023-05-05T10:35:53.624Z,42.67
2023-05-05T10:40:59.277Z,41.93
2023-05-05T10:46:02.794Z,40.52
2023-05-05T10:51:31.119Z,40.71
2023-05-05T10:56:43.016Z,41.47
2023-05-05T11:01:46.051Z,39.72
2023-05-05T11:07:14.743Z,36.34
2023-05-05T11:12:18.203Z,38.69
2023-05-05T11:17:47.781Z,38.92
2023-05-05T11:23:02.780Z,38.26
2023-05-05T11:28:25.663Z,37.95
2023-05-05T11:33:33.525Z,38.52
2023-05-05T11:38:36.438Z,39.02
2023-05-05T11:43:41.847Z,38.88
2023-05-05T11:48:46.479Z,39.03
2023-05-05T11:53:50.977Z,37.82
2023-05-05T11:59:11.295Z,38.14
2023-05-05T12:04:16.178Z,38.21
2023-05-05T12:09:21.588Z,38.33
2023-05-05T12:14:26.079Z,36.44
2023-05-05T12:19:33.156Z,35.90
2023-05-05T12:24:36.249Z,36.85
2023-05-05T12:29:39.425Z,36.97
2023-05-05T12:34:42.314Z,37.24
2023-05-05T12:39:45.666Z,37.46
2023-05-05T12:44:49.336Z,37.87
2023-05-05T12:49:52.950Z,37.93
2023-05-05T12:54:57.919Z,38.05
2023-05-05T13:00:13.622Z,38.26
2023-05-05T13:05:28.914Z,39.28
2023-05-05T13:10:31.922Z,39.12
2023-05-05T13:15:35.028Z,39.03
2023-05-05T13:20:37.878Z,37.53
2023-05-05T13:25:40.740Z,36.85
2023-05-05T13:30:43.551Z,37.47
2023-05-05T13:35:46.423Z,36.74
2023-05-05T13:40:49.327Z,37.64
2023-05-05T13:45:53.628Z,38.08
2023-05-05T13:50:56.680Z,38.11
2023-05-05T13:55:59.804Z,38.60
2023-05-05T14:01:03.358Z,38.43
2023-05-05T14:06:07.615Z,37.88
2023-05-05T14:11:10.795Z,38.26
2023-05-05T14:16:14.059Z,38.21
2023-05-05T14:21:17.049Z,38.63
2023-05-05T14:26:20.040Z,38.31
2023-05-05T14:31:23.170Z,37.39
2023-05-05T14:36:26.980Z,37.82
2023-05-05T14:41:29.953Z,38.17
2023-05-05T14:46:33.635Z,37.59
2023-05-05T14:51:36.560Z,37.41
2023-05-05T14:56:39.575Z,37.77
2023-05-05T15:01:42.612Z,37.86
2023-05-05T15:06:45.793Z,37.52
2023-05-05T15:11:48.681Z,37.95
2023-05-05T15:16:51.824Z,37.57
2023-05-05T15:21:55.570Z,38.22
2023-05-05T15:26:58.549Z,38.90
2023-05-05T15:32:01.562Z,38.89
2023-05-05T15:37:04.544Z,39.17
2023-05-05T15:42:07.583Z,39.21
2023-05-05T15:47:11.004Z,39.80
2023-05-05T15:52:14.128Z,40.09
2023-05-05T15:57:21.579Z,39.61
2023-05-05T16:02:25.070Z,39.11
2023-05-05T16:07:28.099Z,39.89
2023-05-05T16:12:31.258Z,40.25
2023-05-05T16:17:34.136Z,40.21
2023-05-05T16:22:37.075Z,40.76
2023-05-05T16:27:39.905Z,42.39
2023-05-05T16:32:43.116Z,43.63
2023-05-05T16:37:49.085Z,44.96
2023-05-05T16:42:52.021Z,46.06
2023-05-05T16:47:57.730Z,47.05
2023-05-05T16:53:00.821Z,47.47
2023-05-05T16:58:04.726Z,48.50
2023-05-05T17:03:07.657Z,48.52
2023-05-05T17:08:14.174Z,49.01
2023-05-05T17:13:17.277Z,49.86
2023-05-05T17:18:22.778Z,49.90
2023-05-05T17:23:25.752Z,49.67
2023-05-05T17:28:28.712Z,49.85
2023-05-05T17:33:31.682Z,50.48
2023-05-05T17:38:34.690Z,50.09
2023-05-05T17:43:37.682Z,50.25
2023-05-05T17:48:40.675Z,50.65
2023-05-05T17:53:43.704Z,50.92
2023-05-05T17:58:46.730Z,51.39
2023-05-05T18:03:50.261Z,51.53
2023-05-05T18:08:53.088Z,51.63
2023-05-05T18:13:56.333Z,51.99
2023-05-05T18:18:59.296Z,52.10
2023-05-05T18:24:15.721Z,52.40
2023-05-05T18:29:22.913Z,52.17
2023-05-05T18:34:26.364Z,52.45
2023-05-05T18:39:32.326Z,52.75
2023-05-05T18:44:35.752Z,52.75
2023-05-05T18:49:38.621Z,52.96
2023-05-05T18:54:41.560Z,52.58
2023-05-05T18:59:44.607Z,53.51
2023-05-05T19:04:47.661Z,53.72
2023-05-05T19:09:50.745Z,53.56
2023-05-05T19:14:53.730Z,54.29
2023-05-05T19:19:56.716Z,54.55
2023-05-05T19:24:59.708Z,54.79
2023-05-05T19:30:07.534Z,54.94
2023-05-05T19:35:11.900Z,54.92
2023-05-05T19:40:15.089Z,55.42
2023-05-05T19:45:18.225Z,55.41
2023-05-05T19:50:21.781Z,55.60
2023-05-05T19:55:24.605Z,55.90
2023-05-05T20:00:27.687Z,55.80
2023-05-05T20:05:30.950Z,55.91
2023-05-05T20:10:34.445Z,55.98
2023-05-05T20:15:37.313Z,56.11
2023-05-05T20:20:40.677Z,56.26
2023-05-05T20:25:43.641Z,56.15
2023-05-05T20:30:46.788Z,56.38
2023-05-05T20:35:49.780Z,56.23
2023-05-05T20:40:52.853Z,56.46
2023-05-05T20:45:55.837Z,56.75
2023-05-05T20:50:58.983Z,56.83
2023-05-05T20:56:02.038Z,56.84
2023-05-05T21:01:05.095Z,56.86
2023-05-05T21:06:08.084Z,57.17
2023-05-05T21:11:11.070Z,57.19
2023-05-05T21:16:14.186Z,57.16
2023-05-05T21:21:17.326Z,57.53
2023-05-05T21:26:21.062Z,57.82
2023-05-05T21:31:24.052Z,58.15
2023-05-05T21:36:27.478Z,58.25
2023-05-05T21:41:30.819Z,58.60
2023-05-05T21:46:33.960Z,58.90
2023-05-05T21:51:37.391Z,58.93
2023-05-05T21:56:40.370Z,58.89
2023-05-05T22:01:43.388Z,59.38
2023-05-05T22:06:46.376Z,59.52
2023-05-05T22:11:49.414Z,59.62
2023-05-05T22:16:52.660Z,59.95
2023-05-05T22:21:57.456Z,60.00
2023-05-05T22:27:00.472Z,60.16
2023-05-05T22:32:03.482Z,60.57
2023-05-05T22:37:06.476Z,60.93
2023-05-05T22:42:09.616Z,61.14
2023-05-05T22:47:13.389Z,61.31
2023-05-05T22:52:16.376Z,61.48
2023-05-05T22:57:19.410Z,61.54
2023-05-05T23:02:22.478Z,61.60
2023-05-05T23:07:25.583Z,61.82
2023-05-05T23:12:28.623Z,61.92
2023-05-05T23:17:31.628Z,62.01
2023-05-05T23:22:34.589Z,62.02
2023-05-05T23:27:40.037Z,62.17
2023-05-05T23:32:44.970Z,62.09
2023-05-05T23:37:48.033Z,65.91
2023-05-05T23:42:51.028Z,61.91
2023-05-05T23:47:54.248Z,52.84
2023-05-05T23:52:57.299Z,53.22
2023-05-05T23:58:00.268Z,54.97
